Time;durP1;ratioP1;P1;durP2;ratioP2;P2;SDS_P1;SDS_P2;PMS_P1;PMS_P2;Temp;Humidity;BMP_temperature;BMP_pressure;BME280_temperature;BME280_humidity;BME280_pressure;Samples;Min_cycle;Max_cycle;Signal;HPM_P1;HPM_P2
2022/08/04 00:02:02;;;;;;;;;;;27.20;86.60;;;;;;5056844;28;19960;-63
2022/08/04 00:04:31;;;;;;;;;;;27.30;85.40;;;;;;5055839;28;19972;-63
2022/08/04 00:06:59;;;;;;;;;;;27.10;86.70;;;;;;5038952;28;19980;-62
2022/08/04 00:09:29;;;;;;;;;;;27.20;85.30;;;;;;5051744;28;19924;-62
2022/08/04 00:11:54;;;;;;;;;;;27.40;86.90;;;;;;5074094;28;19925;-61
2022/08/04 00:14:20;;;;;;;;;;;27.40;86.60;;;;;;5045463;28;20023;-62
2022/08/04 00:16:45;;;;;;;;;;;27.00;86.30;;;;;;5056225;28;20465;-62
2022/08/04 00:19:21;;;;;;;;;;;27.10;86.30;;;;;;5056295;28;19938;-62
2022/08/04 00:21:49;;;;;;;;;;;27.00;85.20;;;;;;5038889;28;19951;-63
2022/08/04 00:24:15;;;;;;;;;;;27.20;86.70;;;;;;5054308;28;19924;-62
2022/08/04 00:26:40;;;;;;;;;;;27.10;86.50;;;;;;5055696;28;19932;-62
2022/08/04 00:29:06;;;;;;;;;;;26.90;86.10;;;;;;5064252;28;19936;-62
2022/08/04 00:31:31;;;;;;;;;;;27.00;86.40;;;;;;5070339;28;19978;-62
2022/08/04 00:33:57;;;;;;;;;;;26.90;86.30;;;;;;5055524;28;19931;-62
2022/08/04 00:36:23;;;;;;;;;;;27.30;86.60;;;;;;5055817;28;19925;-61
2022/08/04 00:38:48;;;;;;;;;;;27.40;86.70;;;;;;5055835;28;20317;-62
2022/08/04 00:41:17;;;;;;;;;;;27.00;86.40;;;;;;5037409;28;19940;-64
2022/08/04 00:44:02;;;;;;;;;;;27.00;85.10;;;;;;5037542;28;19925;-62
2022/08/04 00:46:34;;;;;;;;;;;27.10;85.20;;;;;;5073785;28;19970;-62
2022/08/04 00:49:18;;;;;;;;;;;27.20;86.80;;;;;;5068814;28;20378;-63
2022/08/04 00:51:55;;;;;;;;;;;26.90;85.10;;;;;;5055771;28;19924;-63
2022/08/04 00:54:37;;;;;;;;;;;27.00;85.20;;;;;;5067090;28;19924;-65
2022/08/04 00:57:09;;;;;;;;;;;26.90;85.10;;;;;;5053977;28;19991;-62
2022/08/04 00:59:44;;;;;;;;;;;27.10;86.60;;;;;;5054796;28;19921;-62
2022/08/04 01:02:10;;;;;;;;;;;26.90;85.10;;;;;;5070000;28;20417;-63
2022/08/04 01:04:48;;;;;;;;;;;26.80;86.10;;;;;;5054917;28;20001;-62
2022/08/04 01:07:29;;;;;;;;;;;27.20;85.30;;;;;;5058462;28;19925;-62
2022/08/04 01:10:06;;;;;;;;;;;27.20;85.30;;;;;;5053084;28;19921;-62
2022/08/04 01:12:51;;;;;;;;;;;27.10;85.30;;;;;;5054084;28;19924;-61
2022/08/04 01:15:18;;;;;;;;;;;27.10;85.20;;;;;;5038016;28;19937;-62
2022/08/04 01:18:03;;;;;;;;;;;27.20;86.80;;;;;;5053576;28;19979;-63
2022/08/04 01:20:33;;;;;;;;;;;27.00;85.20;;;;;;5072512;28;19974;-62
2022/08/04 01:22:58;;;;;;;;;;;27.00;86.60;;;;;;5072689;28;19920;-62
2022/08/04 01:25:38;;;;;;;;;;;27.20;86.50;;;;;;5072611;28;19924;-62
2022/08/04 01:28:42;;;;;;;;;;;27.20;85.40;;;;;;5074274;28;19971;-63
2022/08/04 01:31:19;;;;;;;;;;;27.10;85.30;;;;;;5011527;28;20403;-62
2022/08/04 01:33:45;;;;;;;;;;;26.70;86.50;;;;;;5011685;28;19930;-62
2022/08/04 01:36:10;;;;;;;;;;;27.10;86.70;;;;;;4977806;28;20346;-62
2022/08/04 01:38:37;;;;;;;;;;;27.00;86.40;;;;;;4996078;28;19934;-62
2022/08/04 01:41:04;;;;;;;;;;;26.90;86.70;;;;;;4978765;28;19932;-64
2022/08/04 01:43:30;;;;;;;;;;;27.10;86.90;;;;;;5012542;28;19926;-62
2022/08/04 01:45:56;;;;;;;;;;;26.80;86.70;;;;;;4993603;28;19991;-62
2022/08/04 01:48:23;;;;;;;;;;;27.00;86.90;;;;;;5021340;28;19932;-62
2022/08/04 01:50:50;;;;;;;;;;;27.10;87.00;;;;;;5012242;28;19972;-61
2022/08/04 01:53:16;;;;;;;;;;;27.00;86.90;;;;;;5028027;28;19949;-62
2022/08/04 01:55:41;;;;;;;;;;;26.90;86.60;;;;;;5014633;28;19926;-66
2022/08/04 01:58:07;;;;;;;;;;;26.90;86.50;;;;;;4999304;28;19925;-62
2022/08/04 02:00:32;;;;;;;;;;;26.90;86.50;;;;;;4991624;28;19921;-62
2022/08/04 02:02:58;;;;;;;;;;;27.00;86.80;;;;;;5071427;28;19925;-62
2022/08/04 02:05:24;;;;;;;;;;;26.90;86.60;;;;;;5068177;28;19928;-62
2022/08/04 02:07:59;;;;;;;;;;;26.70;86.70;;;;;;5061220;28;20294;-62
2022/08/04 02:10:29;;;;;;;;;;;26.60;85.20;;;;;;5061072;28;19925;-62
2022/08/04 02:13:10;;;;;;;;;;;26.90;85.40;;;;;;5053560;28;20444;-62
2022/08/04 02:15:42;;;;;;;;;;;26.90;85.40;;;;;;5053309;28;20294;-62
2022/08/04 02:18:07;;;;;;;;;;;26.70;85.30;;;;;;5061295;28;19978;-62
2022/08/04 02:20:36;;;;;;;;;;;26.70;86.50;;;;;;5056825;28;19929;-62
2022/08/04 02:23:06;;;;;;;;;;;26.70;86.80;;;;;;5053536;28;19921;-62
2022/08/04 02:25:34;;;;;;;;;;;27.00;87.00;;;;;;5035645;28;19924;-62
2022/08/04 02:28:05;;;;;;;;;;;26.80;86.90;;;;;;5053228;28;19921;-62
2022/08/04 02:30:39;;;;;;;;;;;26.80;85.50;;;;;;5070385;28;19924;-62
2022/08/04 02:33:05;;;;;;;;;;;26.90;85.50;;;;;;5068734;28;19924;-62
2022/08/04 02:35:34;;;;;;;;;;;26.90;86.80;;;;;;5072584;28;19925;-62
2022/08/04 02:38:12;;;;;;;;;;;26.90;87.00;;;;;;5072480;28;19931;-67
2022/08/04 02:40:38;;;;;;;;;;;26.70;85.40;;;;;;5043531;28;20290;-62
2022/08/04 02:43:03;;;;;;;;;;;26.90;86.80;;;;;;5049770;28;19932;-62
2022/08/04 02:45:29;;;;;;;;;;;26.70;86.40;;;;;;5071075;28;19925;-63
2022/08/04 02:47:55;;;;;;;;;;;27.00;86.80;;;;;;5058545;28;19925;-62
2022/08/04 02:50:20;;;;;;;;;;;27.50;87.10;;;;;;5062719;28;19921;-62
2022/08/04 02:52:46;;;;;;;;;;;26.70;86.60;;;;;;5055306;28;19983;-62
2022/08/04 02:55:12;;;;;;;;;;;26.60;86.70;;;;;;5072361;28;19931;-62
2022/08/04 02:57:37;;;;;;;;;;;26.80;86.50;;;;;;5073185;28;19948;-64
2022/08/04 03:00:10;;;;;;;;;;;27.00;86.70;;;;;;5051489;28;20018;-64
2022/08/04 03:02:45;;;;;;;;;;;26.80;85.40;;;;;;5069931;28;20329;-62
2022/08/04 03:05:17;;;;;;;;;;;26.80;85.40;;;;;;5051495;28;19925;-62
2022/08/04 03:07:43;;;;;;;;;;;27.10;85.60;;;;;;5039118;28;19921;-64
2022/08/04 03:10:15;;;;;;;;;;;26.80;86.60;;;;;;5056988;28;19931;-62
2022/08/04 03:12:50;;;;;;;;;;;26.70;85.30;;;;;;5072714;28;19924;-64
2022/08/04 03:15:27;;;;;;;;;;;26.70;85.40;;;;;;5077118;28;20297;-65
2022/08/04 03:17:59;;;;;;;;;;;26.60;85.30;;;;;;5076685;28;19932;-63
2022/08/04 03:20:43;;;;;;;;;;;26.80;85.40;;;;;;5072993;28;20427;-62
2022/08/04 03:23:27;;;;;;;;;;;26.60;85.20;;;;;;5070653;28;19931;-66
2022/08/04 03:26:05;;;;;;;;;;;26.60;85.20;;;;;;5076472;28;19969;-67
2022/08/04 03:28:30;;;;;;;;;;;26.60;85.30;;;;;;5069081;28;19925;-67
2022/08/04 03:31:02;;;;;;;;;;;26.60;86.50;;;;;;5073302;28;20278;-64
2022/08/04 03:33:27;;;;;;;;;;;26.90;85.40;;;;;;5073808;28;19931;-62
2022/08/04 03:36:12;;;;;;;;;;;26.60;86.40;;;;;;5076735;28;20290;-63
2022/08/04 03:38:56;;;;;;;;;;;26.90;85.50;;;;;;5073551;28;19999;-65
2022/08/04 03:41:21;;;;;;;;;;;26.70;85.30;;;;;;5055990;28;19924;-64
2022/08/04 03:44:02;;;;;;;;;;;26.80;86.40;;;;;;5066295;28;19928;-64
2022/08/04 03:46:34;;;;;;;;;;;26.70;85.40;;;;;;5057501;28;19985;-70
2022/08/04 03:49:02;;;;;;;;;;;26.70;85.40;;;;;;5064003;28;19932;-69
2022/08/04 03:54:48;;;;;;;;;;;26.50;85.20;;;;;;5060877;28;19924;-67
2022/08/04 03:57:17;;;;;;;;;;;26.80;85.40;;;;;;5050737;28;20015;-69
2022/08/04 04:00:02;;;;;;;;;;;26.80;85.40;;;;;;5076605;28;19924;-64
2022/08/04 04:02:34;;;;;;;;;;;26.70;85.40;;;;;;5073504;28;20267;-62
2022/08/04 04:05:09;;;;;;;;;;;26.70;86.80;;;;;;5054643;28;19925;-63
2022/08/04 04:07:49;;;;;;;;;;;26.70;85.40;;;;;;5074961;28;19928;-65
2022/08/04 04:10:31;;;;;;;;;;;26.60;85.30;;;;;;5075490;28;19987;-62
2022/08/04 04:13:11;;;;;;;;;;;26.60;85.30;;;;;;5074182;28;20457;-64
2022/08/04 04:15:37;;;;;;;;;;;26.60;85.40;;;;;;5072400;28;19931;-64
2022/08/04 04:18:15;;;;;;;;;;;26.60;86.60;;;;;;5075659;28;20026;-64
2022/08/04 04:20:44;;;;;;;;;;;26.60;85.40;;;;;;5074723;28;19925;-62
2022/08/04 04:23:28;;;;;;;;;;;26.50;85.30;;;;;;5075836;28;20003;-62
2022/08/04 04:25:54;;;;;;;;;;;26.60;85.50;;;;;;5069700;28;20014;-64
2022/08/04 04:28:28;;;;;;;;;;;26.70;86.50;;;;;;5055704;28;19964;-64
2022/08/04 04:31:00;;;;;;;;;;;26.90;85.60;;;;;;5060591;28;19920;-68
2022/08/04 04:33:25;;;;;;;;;;;26.60;85.40;;;;;;5068892;28;20366;-71
2022/08/04 04:36:17;;;;;;;;;;;26.70;86.60;;;;;;5064932;28;19932;-62
2022/08/04 04:38:52;;;;;;;;;;;26.70;85.40;;;;;;5055498;28;20235;-62
2022/08/04 04:41:25;;;;;;;;;;;26.80;85.30;;;;;;5075054;28;19931;-62
2022/08/04 04:44:06;;;;;;;;;;;26.90;85.30;;;;;;5070836;28;19936;-62
2022/08/04 04:46:40;;;;;;;;;;;26.50;85.00;;;;;;5055612;28;19924;-71
2022/08/04 04:49:17;;;;;;;;;;;27.10;85.30;;;;;;5064908;28;20397;-70
2022/08/04 04:51:46;;;;;;;;;;;27.10;85.20;;;;;;5075616;28;19932;-62
2022/08/04 04:54:18;;;;;;;;;;;26.70;86.30;;;;;;5073586;28;19924;-62
2022/08/04 04:56:52;;;;;;;;;;;27.00;85.10;;;;;;5072252;28;19978;-61
2022/08/04 04:59:20;;;;;;;;;;;27.20;85.10;;;;;;5073089;28;19925;-63
2022/08/04 05:02:14;;;;;;;;;;;26.90;86.40;;;;;;5073899;28;20017;-63
2022/08/04 05:04:59;;;;;;;;;;;26.60;84.70;;;;;;5068531;28;20013;-62
2022/08/04 05:07:49;;;;;;;;;;;27.20;85.10;;;;;;5055724;28;19932;-63
2022/08/04 05:10:23;;;;;;;;;;;27.00;84.90;;;;;;5036906;28;19925;-62
2022/08/04 05:12:52;;;;;;;;;;;26.90;84.70;;;;;;5033376;28;19929;-62
2022/08/04 05:15:18;;;;;;;;;;;27.10;84.60;;;;;;5035213;28;19925;-63
2022/08/04 05:17:45;;;;;;;;;;;27.10;85.60;;;;;;5049816;28;19921;-62
2022/08/04 05:20:10;;;;;;;;;;;26.80;85.70;;;;;;5034279;28;19925;-62
2022/08/04 05:22:38;;;;;;;;;;;27.30;85.80;;;;;;5034680;28;19921;-63
2022/08/04 05:25:03;;;;;;;;;;;27.10;85.60;;;;;;5028281;28;19925;-63
2022/08/04 05:27:36;;;;;;;;;;;27.40;85.40;;;;;;5033526;28;19925;-63
2022/08/04 05:33:31;;;;;;;;;;;27.10;84.00;;;;;;5034337;28;19947;-62
2022/08/04 05:35:57;;;;;;;;;;;27.40;84.00;;;;;;5042337;28;19931;-64
2022/08/04 05:38:25;;;;;;;;;;;27.50;85.50;;;;;;5053801;28;19925;-65
2022/08/04 05:40:51;;;;;;;;;;;27.70;85.40;;;;;;5051035;28;19925;-63
2022/08/04 05:43:16;;;;;;;;;;;27.60;84.70;;;;;;5044205;28;19932;-64
2022/08/04 05:45:42;;;;;;;;;;;27.80;84.80;;;;;;5049947;28;20272;-63
2022/08/04 05:48:08;;;;;;;;;;;27.70;84.50;;;;;;5051101;28;19925;-71
2022/08/04 05:50:33;;;;;;;;;;;27.90;84.40;;;;;;5052134;28;20341;-70
2022/08/04 05:52:59;;;;;;;;;;;27.70;84.00;;;;;;5051000;28;20409;-69
2022/08/04 05:55:25;;;;;;;;;;;28.00;84.10;;;;;;5046054;28;19928;-71
2022/08/04 05:57:50;;;;;;;;;;;28.00;84.20;;;;;;5065142;28;19928;-70
2022/08/04 06:00:17;;;;;;;;;;;27.70;83.50;;;;;;5047603;28;19920;-70
2022/08/04 06:02:43;;;;;;;;;;;27.90;83.60;;;;;;5034178;28;20278;-71
2022/08/04 06:05:09;;;;;;;;;;;28.20;84.00;;;;;;5036418;28;19925;-70
2022/08/04 06:07:35;;;;;;;;;;;28.30;84.00;;;;;;5052476;28;19929;-70
2022/08/04 06:10:00;;;;;;;;;;;28.30;84.00;;;;;;5036179;28;20387;-70
2022/08/04 06:12:29;;;;;;;;;;;28.30;84.00;;;;;;5053702;28;19933;-70
2022/08/04 06:14:55;;;;;;;;;;;28.20;83.90;;;;;;5057313;28;19939;-70
2022/08/04 06:17:23;;;;;;;;;;;28.40;83.90;;;;;;5056124;28;20001;-72
2022/08/04 06:19:48;;;;;;;;;;;28.10;83.70;;;;;;5054808;28;20317;-72
2022/08/04 06:22:14;;;;;;;;;;;28.00;83.70;;;;;;5067595;28;19970;-72
2022/08/04 06:24:40;;;;;;;;;;;28.10;83.90;;;;;;5031412;28;19975;-73
2022/08/04 06:27:05;;;;;;;;;;;28.30;84.10;;;;;;5049058;28;20338;-68
2022/08/04 06:29:40;;;;;;;;;;;28.00;83.80;;;;;;5053126;28;19963;-65
2022/08/04 06:34:51;;;;;;;;;;;28.20;83.40;;;;;;5080127;28;20406;-69
2022/08/04 06:37:17;;;;;;;;;;;28.50;84.10;;;;;;5054285;28;19931;-62
2022/08/04 06:39:42;;;;;;;;;;;28.50;83.70;;;;;;5046457;28;20022;-69
2022/08/04 06:42:08;;;;;;;;;;;28.30;83.80;;;;;;5070114;28;19924;-66
2022/08/04 06:44:33;;;;;;;;;;;28.70;83.20;;;;;;5087477;28;19939;-63
2022/08/04 06:46:59;;;;;;;;;;;28.60;83.50;;;;;;5065251;28;19925;-63
2022/08/04 06:49:25;;;;;;;;;;;28.50;83.00;;;;;;5055257;28;20271;-63
2022/08/04 06:51:50;;;;;;;;;;;28.80;82.60;;;;;;5069765;28;19995;-63
2022/08/04 06:54:16;;;;;;;;;;;29.00;82.70;;;;;;5088117;28;19974;-63
2022/08/04 06:56:42;;;;;;;;;;;29.00;82.70;;;;;;5088721;28;19923;-63
2022/08/04 06:59:08;;;;;;;;;;;29.20;82.70;;;;;;5072549;28;20290;-63
2022/08/04 07:01:34;;;;;;;;;;;29.20;82.10;;;;;;5080763;28;19924;-63
2022/08/04 07:04:00;;;;;;;;;;;29.00;81.90;;;;;;5071154;28;19932;-66
2022/08/04 07:06:25;;;;;;;;;;;29.30;82.00;;;;;;5077058;28;19925;-63
2022/08/04 07:08:51;;;;;;;;;;;29.10;81.60;;;;;;5079426;28;19924;-63
2022/08/04 07:11:18;;;;;;;;;;;29.20;81.70;;;;;;5071711;28;19932;-64
2022/08/04 07:13:45;;;;;;;;;;;29.20;81.60;;;;;;5056252;28;20382;-62
2022/08/04 07:16:12;;;;;;;;;;;29.50;80.10;;;;;;5056771;28;20386;-63
2022/08/04 07:18:37;;;;;;;;;;;29.20;81.10;;;;;;5088493;28;20001;-63
2022/08/04 07:21:03;;;;;;;;;;;29.60;81.10;;;;;;5079088;28;19990;-63
2022/08/04 07:23:29;;;;;;;;;;;29.40;80.60;;;;;;5072896;28;19924;-64
2022/08/04 07:25:56;;;;;;;;;;;29.50;80.80;;;;;;5068837;28;19998;-64
2022/08/04 07:28:22;;;;;;;;;;;29.50;81.00;;;;;;5061035;28;20344;-63
2022/08/04 07:30:48;;;;;;;;;;;29.50;80.90;;;;;;5082027;28;19928;-66
2022/08/04 07:33:17;;;;;;;;;;;29.60;80.50;;;;;;5058211;28;19943;-66
2022/08/04 07:35:43;;;;;;;;;;;29.50;80.70;;;;;;5060276;28;19925;-67
2022/08/04 07:38:10;;;;;;;;;;;29.70;80.30;;;;;;5058259;28;19932;-62
2022/08/04 07:40:36;;;;;;;;;;;29.50;80.60;;;;;;5084294;28;19951;-64
2022/08/04 07:43:03;;;;;;;;;;;29.60;80.40;;;;;;5036323;28;19924;-64
2022/08/04 07:45:29;;;;;;;;;;;29.60;79.10;;;;;;5075682;28;19924;-63
2022/08/04 07:47:56;;;;;;;;;;;29.80;79.80;;;;;;5081897;28;19929;-63
2022/08/04 07:50:25;;;;;;;;;;;29.60;79.50;;;;;;5055303;28;19972;-63
2022/08/04 07:52:51;;;;;;;;;;;29.80;79.00;;;;;;5064109;28;20321;-65
2022/08/04 07:55:17;;;;;;;;;;;29.90;79.70;;;;;;5060711;28;19939;-65
2022/08/04 07:57:43;;;;;;;;;;;29.80;79.90;;;;;;5067162;28;19924;-65
2022/08/04 08:00:09;;;;;;;;;;;29.60;79.40;;;;;;5063179;28;20028;-63
2022/08/04 08:02:35;;;;;;;;;;;29.60;79.30;;;;;;5056311;28;19935;-63
2022/08/04 08:05:00;;;;;;;;;;;29.80;79.30;;;;;;5052504;28;19925;-63
2022/08/04 08:07:26;;;;;;;;;;;29.60;79.30;;;;;;5068545;28;19928;-63
2022/08/04 08:09:52;;;;;;;;;;;29.70;79.10;;;;;;5058067;28;19924;-66
2022/08/04 08:12:17;;;;;;;;;;;29.40;78.70;;;;;;5080119;28;19977;-66
2022/08/04 08:14:43;;;;;;;;;;;30.10;79.10;;;;;;5088400;28;19925;-66
2022/08/04 08:17:09;;;;;;;;;;;30.00;79.00;;;;;;5063275;28;19931;-66
2022/08/04 08:19:34;;;;;;;;;;;29.70;78.70;;;;;;5057556;28;19939;-66
2022/08/04 08:22:00;;;;;;;;;;;29.90;78.70;;;;;;5087808;28;19931;-66
2022/08/04 08:24:26;;;;;;;;;;;29.80;78.50;;;;;;5057058;28;19924;-65
2022/08/04 08:26:52;;;;;;;;;;;29.80;78.80;;;;;;5090146;28;20296;-66
2022/08/04 08:29:18;;;;;;;;;;;29.80;78.40;;;;;;5064223;28;20015;-65
2022/08/04 08:31:43;;;;;;;;;;;29.70;78.40;;;;;;5058057;28;19924;-66
2022/08/04 08:34:12;;;;;;;;;;;29.90;78.50;;;;;;5056449;28;19924;-69
2022/08/04 08:36:40;;;;;;;;;;;29.80;77.20;;;;;;5055617;28;20301;-65
2022/08/04 08:39:06;;;;;;;;;;;30.00;78.60;;;;;;5070379;28;20023;-66
2022/08/04 08:41:41;;;;;;;;;;;30.10;78.70;;;;;;5075737;28;19960;-67
2022/08/04 08:44:06;;;;;;;;;;;29.90;76.80;;;;;;5074294;28;19955;-65
2022/08/04 08:46:41;;;;;;;;;;;30.00;78.00;;;;;;5076898;28;20405;-66
2022/08/04 08:49:16;;;;;;;;;;;29.90;76.60;;;;;;5075646;28;20351;-68
2022/08/04 08:51:53;;;;;;;;;;;29.90;76.90;;;;;;5061101;28;19952;-66
2022/08/04 08:54:54;;;;;;;;;;;29.90;76.10;;;;;;5036582;28;20302;-65
2022/08/04 08:57:25;;;;;;;;;;;29.80;76.00;;;;;;4956287;28;20424;-71
2022/08/04 08:59:51;;;;;;;;;;;30.00;77.60;;;;;;4951634;28;19926;-64
2022/08/04 09:02:33;;;;;;;;;;;29.90;77.30;;;;;;4964128;28;19969;-64
2022/08/04 09:05:01;;;;;;;;;;;29.80;76.10;;;;;;4941345;29;19926;-65
2022/08/04 09:07:32;;;;;;;;;;;29.70;76.30;;;;;;4935222;28;19933;-65
2022/08/04 09:09:57;;;;;;;;;;;29.90;78.00;;;;;;4957349;28;19941;-63
2022/08/04 09:12:49;;;;;;;;;;;29.80;77.40;;;;;;4965499;28;19930;-64
2022/08/04 09:15:17;;;;;;;;;;;30.10;76.80;;;;;;4934605;28;19977;-65
2022/08/04 09:17:50;;;;;;;;;;;29.80;76.20;;;;;;4961243;28;19926;-63
2022/08/04 09:20:36;;;;;;;;;;;29.80;76.40;;;;;;4956596;28;19984;-63
2022/08/04 09:23:17;;;;;;;;;;;29.80;76.50;;;;;;4951072;28;19927;-63
2022/08/04 09:25:47;;;;;;;;;;;29.90;76.60;;;;;;4954339;29;19981;-63
2022/08/04 09:28:18;;;;;;;;;;;29.90;76.40;;;;;;4965512;28;20327;-62
2022/08/04 09:30:48;;;;;;;;;;;30.20;77.70;;;;;;4996173;28;19925;-63
2022/08/04 09:33:22;;;;;;;;;;;30.10;76.10;;;;;;5048564;28;20051;-62
2022/08/04 09:35:48;;;;;;;;;;;30.20;75.90;;;;;;5051802;28;19932;-63
2022/08/04 09:38:18;;;;;;;;;;;30.10;76.60;;;;;;5053001;28;19931;-62
2022/08/04 09:40:48;;;;;;;;;;;30.30;75.70;;;;;;5070152;28;19986;-63
2022/08/04 09:43:28;;;;;;;;;;;30.40;75.40;;;;;;5094319;28;19924;-62
2022/08/04 09:46:13;;;;;;;;;;;30.10;75.20;;;;;;5060202;28;19924;-62
2022/08/04 09:48:45;;;;;;;;;;;30.10;75.00;;;;;;5070580;28;19925;-62
2022/08/04 09:51:24;;;;;;;;;;;30.40;75.20;;;;;;5076841;28;19967;-62
2022/08/04 09:54:10;;;;;;;;;;;30.10;74.90;;;;;;5051591;28;19931;-64
2022/08/04 09:56:48;;;;;;;;;;;30.20;76.30;;;;;;5034078;28;19932;-64
2022/08/04 09:59:26;;;;;;;;;;;30.60;74.90;;;;;;5076267;28;19932;-63
2022/08/04 10:01:58;;;;;;;;;;;30.40;74.70;;;;;;5050734;28;20027;-64
2022/08/04 10:04:25;;;;;;;;;;;30.40;74.80;;;;;;5051624;28;20011;-64
2022/08/04 10:07:02;;;;;;;;;;;30.20;75.90;;;;;;5050825;28;19932;-64
2022/08/04 10:09:49;;;;;;;;;;;30.20;74.80;;;;;;5082816;28;20390;-63
2022/08/04 10:12:16;;;;;;;;;;;30.50;75.20;;;;;;5054785;28;20050;-62
2022/08/04 10:14:47;;;;;;;;;;;30.20;75.90;;;;;;5053713;28;19925;-62
2022/08/04 10:17:39;;;;;;;;;;;30.40;76.40;;;;;;5060661;28;19985;-62
2022/08/04 10:20:05;;;;;;;;;;;30.30;74.80;;;;;;5030537;28;19940;-65
2022/08/04 10:22:32;;;;;;;;;;;30.20;75.40;;;;;;5054102;28;19925;-63
2022/08/04 10:25:06;;;;;;;;;;;30.20;75.80;;;;;;5059941;28;19932;-64
2022/08/04 10:27:51;;;;;;;;;;;30.40;74.50;;;;;;5060023;28;20264;-63
2022/08/04 10:30:17;;;;;;;;;;;30.00;74.20;;;;;;5036020;28;19924;-63
2022/08/04 10:32:44;;;;;;;;;;;30.10;76.00;;;;;;5051798;28;19925;-65
2022/08/04 10:35:12;;;;;;;;;;;30.30;76.60;;;;;;5053898;28;19928;-63
2022/08/04 10:37:56;;;;;;;;;;;30.10;76.80;;;;;;5030819;28;19929;-63
2022/08/04 10:40:35;;;;;;;;;;;30.10;75.80;;;;;;5072492;28;19925;-63
2022/08/04 10:43:03;;;;;;;;;;;30.20;76.20;;;;;;5055816;28;20014;-63
2022/08/04 10:45:37;;;;;;;;;;;30.10;76.50;;;;;;5060893;28;19925;-63
2022/08/04 10:48:23;;;;;;;;;;;29.80;76.50;;;;;;5060069;28;19932;-63
2022/08/04 10:51:12;;;;;;;;;;;30.00;77.00;;;;;;5055925;28;19924;-65
2022/08/04 10:53:37;;;;;;;;;;;30.00;77.40;;;;;;4980702;28;19926;-66
2022/08/04 10:56:05;;;;;;;;;;;29.80;78.70;;;;;;4968128;28;20300;-65
2022/08/04 10:58:35;;;;;;;;;;;29.70;78.80;;;;;;4970983;28;19929;-66
2022/08/04 11:01:02;;;;;;;;;;;29.90;79.30;;;;;;4968617;28;19977;-64
2022/08/04 11:03:37;;;;;;;;;;;29.90;79.30;;;;;;4974851;28;20378;-62
2022/08/04 11:06:03;;;;;;;;;;;29.80;78.00;;;;;;4966514;28;19948;-64
2022/08/04 11:08:36;;;;;;;;;;;29.60;78.80;;;;;;4990699;28;19926;-63
2022/08/04 11:11:11;;;;;;;;;;;30.00;78.30;;;;;;4988592;28;19937;-65
2022/08/04 11:13:46;;;;;;;;;;;29.50;79.30;;;;;;4994576;28;20476;-65
2022/08/04 11:16:14;;;;;;;;;;;29.70;79.20;;;;;;4958529;28;19926;-64
2022/08/04 11:18:58;;;;;;;;;;;29.60;79.60;;;;;;4955839;28;19926;-65
2022/08/04 11:21:25;;;;;;;;;;;29.80;77.80;;;;;;4994960;28;20292;-65
2022/08/04 11:23:55;;;;;;;;;;;29.30;78.70;;;;;;4996575;28;19925;-66
2022/08/04 11:26:23;;;;;;;;;;;30.00;79.00;;;;;;5010513;28;19926;-63
2022/08/04 11:28:51;;;;;;;;;;;29.90;79.00;;;;;;4992049;28;19949;-63
2022/08/04 11:31:29;;;;;;;;;;;29.60;77.20;;;;;;5055487;28;19924;-63
2022/08/04 11:34:14;;;;;;;;;;;29.60;78.60;;;;;;5059787;28;19945;-62
2022/08/04 11:37:05;;;;;;;;;;;29.70;77.30;;;;;;5069189;28;19928;-65
2022/08/04 11:39:35;;;;;;;;;;;29.50;77.00;;;;;;5062466;28;20003;-65
2022/08/04 11:42:07;;;;;;;;;;;29.60;77.00;;;;;;5075501;28;19928;-62
2022/08/04 11:44:36;;;;;;;;;;;29.80;77.10;;;;;;5075706;28;19924;-63
2022/08/04 11:47:03;;;;;;;;;;;29.70;77.10;;;;;;5074326;28;19931;-65
2022/08/04 11:49:43;;;;;;;;;;;29.60;78.30;;;;;;5065017;28;19932;-65
2022/08/04 11:52:09;;;;;;;;;;;29.60;76.90;;;;;;5059397;28;19925;-65
2022/08/04 11:54:34;;;;;;;;;;;29.40;77.20;;;;;;5055989;28;20015;-65
2022/08/04 11:57:01;;;;;;;;;;;29.60;77.90;;;;;;5066891;28;19940;-65
2022/08/04 11:59:27;;;;;;;;;;;29.60;78.10;;;;;;5059843;28;19928;-65
2022/08/04 12:01:58;;;;;;;;;;;29.70;77.70;;;;;;5067523;28;20396;-65
2022/08/04 12:04:46;;;;;;;;;;;29.70;77.30;;;;;;5074658;28;20394;-65
2022/08/04 12:07:19;;;;;;;;;;;29.60;76.50;;;;;;5068576;28;19929;-65
2022/08/04 12:09:58;;;;;;;;;;;29.90;76.70;;;;;;5039673;28;19928;-63
2022/08/04 12:12:38;;;;;;;;;;;29.60;76.60;;;;;;5050427;28;19925;-65
2022/08/04 12:15:06;;;;;;;;;;;29.70;76.60;;;;;;5038152;28;19943;-62
2022/08/04 12:17:42;;;;;;;;;;;29.70;76.60;;;;;;5043259;28;20357;-63
2022/08/04 12:20:11;;;;;;;;;;;29.60;76.80;;;;;;5033925;28;19932;-75
2022/08/04 12:22:47;;;;;;;;;;;29.30;76.80;;;;;;5049860;28;19975;-75
2022/08/04 12:25:24;;;;;;;;;;;29.60;76.90;;;;;;5055318;28;20291;-74
2022/08/04 12:27:54;;;;;;;;;;;29.50;76.80;;;;;;5054352;28;19924;-63
2022/08/04 12:30:21;;;;;;;;;;;29.40;76.70;;;;;;5055184;28;19982;-63
2022/08/04 12:33:05;;;;;;;;;;;29.50;76.80;;;;;;5045497;28;19971;-63
2022/08/04 12:35:40;;;;;;;;;;;29.70;76.90;;;;;;5034433;28;19931;-63
2022/08/04 12:38:13;;;;;;;;;;;29.50;76.80;;;;;;5035247;28;19932;-63
2022/08/04 12:40:40;;;;;;;;;;;29.80;77.00;;;;;;5035131;28;19940;-63
2022/08/04 12:43:10;;;;;;;;;;;29.60;77.20;;;;;;5040761;28;19925;-63
2022/08/04 12:45:53;;;;;;;;;;;29.60;76.80;;;;;;5036624;28;20027;-63
2022/08/04 12:48:21;;;;;;;;;;;29.50;76.80;;;;;;5017430;28;20429;-63
2022/08/04 12:50:52;;;;;;;;;;;29.60;76.90;;;;;;5017233;28;19925;-63
2022/08/04 12:53:39;;;;;;;;;;;29.60;76.90;;;;;;5029550;28;19979;-63
2022/08/04 12:56:09;;;;;;;;;;;29.60;77.00;;;;;;5028722;28;19933;-63
2022/08/04 12:58:39;;;;;;;;;;;29.80;77.20;;;;;;5036045;28;19925;-63
2022/08/04 13:01:06;;;;;;;;;;;29.50;77.10;;;;;;5034837;28;19929;-63
2022/08/04 13:03:39;;;;;;;;;;;29.70;78.50;;;;;;5033991;28;19932;-63
2022/08/04 13:06:06;;;;;;;;;;;29.80;77.40;;;;;;5033701;28;19925;-63
2022/08/04 13:08:37;;;;;;;;;;;29.50;77.30;;;;;;5038060;28;20047;-63
2022/08/04 13:11:04;;;;;;;;;;;29.90;77.70;;;;;;5043882;28;19932;-63
2022/08/04 13:13:32;;;;;;;;;;;29.60;78.50;;;;;;5034112;28;19925;-63
2022/08/04 13:16:00;;;;;;;;;;;29.70;77.80;;;;;;5054506;28;20302;-63
2022/08/04 13:18:28;;;;;;;;;;;29.40;77.90;;;;;;5048546;28;19925;-63
2022/08/04 13:21:18;;;;;;;;;;;29.70;78.00;;;;;;5049442;28;19926;-63
2022/08/04 13:23:46;;;;;;;;;;;29.40;77.80;;;;;;5036283;28;19925;-63
2022/08/04 13:26:13;;;;;;;;;;;29.70;78.40;;;;;;5049868;28;19925;-63
2022/08/04 13:28:45;;;;;;;;;;;29.20;79.10;;;;;;5053511;28;19933;-63
2022/08/04 13:31:15;;;;;;;;;;;29.50;79.30;;;;;;5049705;28;20421;-63
2022/08/04 13:33:43;;;;;;;;;;;29.20;78.00;;;;;;5033484;28;19970;-63
2022/08/04 13:36:09;;;;;;;;;;;29.40;78.70;;;;;;5069877;28;19948;-63
2022/08/04 13:38:36;;;;;;;;;;;29.30;79.20;;;;;;5072260;28;19924;-63
2022/08/04 13:41:03;;;;;;;;;;;29.50;79.70;;;;;;5072761;28;20413;-63
2022/08/04 13:43:30;;;;;;;;;;;29.30;79.60;;;;;;5045702;28;19944;-63
2022/08/04 13:46:02;;;;;;;;;;;29.30;79.50;;;;;;5049599;28;19929;-63
2022/08/04 13:48:35;;;;;;;;;;;29.40;78.20;;;;;;5050096;28;19931;-64
2022/08/04 13:51:03;;;;;;;;;;;29.40;78.80;;;;;;5059352;28;20018;-63
2022/08/04 13:53:32;;;;;;;;;;;29.40;79.60;;;;;;5068790;28;20297;-63
2022/08/04 13:55:59;;;;;;;;;;;29.90;78.50;;;;;;5074143;28;19972;-63
2022/08/04 13:58:25;;;;;;;;;;;29.50;79.40;;;;;;5069677;28;20298;-63
2022/08/04 14:00:50;;;;;;;;;;;29.50;79.40;;;;;;5074624;28;19925;-63
2022/08/04 14:03:24;;;;;;;;;;;29.70;79.40;;;;;;5074119;28;19931;-63
2022/08/04 14:06:10;;;;;;;;;;;29.60;78.20;;;;;;5071020;28;19998;-63
2022/08/04 14:08:42;;;;;;;;;;;29.60;78.30;;;;;;5071540;28;19924;-63
2022/08/04 14:11:08;;;;;;;;;;;29.60;79.80;;;;;;5052394;28;20318;-63
2022/08/04 14:13:33;;;;;;;;;;;29.60;79.40;;;;;;5071589;28;19925;-63
2022/08/04 14:15:59;;;;;;;;;;;29.50;79.30;;;;;;5074014;28;19930;-63
2022/08/04 14:18:28;;;;;;;;;;;29.60;79.60;;;;;;5071826;28;20340;-63
2022/08/04 14:20:57;;;;;;;;;;;29.80;80.00;;;;;;5066360;28;19978;-64
2022/08/04 14:23:24;;;;;;;;;;;29.60;78.50;;;;;;5073921;28;19931;-63
2022/08/04 14:25:50;;;;;;;;;;;29.50;79.80;;;;;;5061502;28;19925;-63
2022/08/04 14:28:25;;;;;;;;;;;29.40;79.90;;;;;;5049105;28;19925;-63
2022/08/04 14:30:51;;;;;;;;;;;29.60;80.00;;;;;;5047566;28;20015;-63
2022/08/04 14:33:17;;;;;;;;;;;29.40;79.60;;;;;;5074053;28;20421;-63
2022/08/04 14:35:43;;;;;;;;;;;29.40;79.70;;;;;;5072103;28;19970;-62
2022/08/04 14:38:09;;;;;;;;;;;29.30;79.60;;;;;;5062449;28;20302;-73
2022/08/04 14:40:35;;;;;;;;;;;29.20;80.50;;;;;;5048509;28;19933;-72
2022/08/04 14:43:01;;;;;;;;;;;29.20;80.10;;;;;;5038489;28;19925;-63
2022/08/04 14:45:37;;;;;;;;;;;29.10;79.60;;;;;;5050353;28;19921;-63
2022/08/04 14:48:09;;;;;;;;;;;29.40;78.70;;;;;;5053188;28;20272;-63